Stone Cabin, Nevada Weather observations

Data are for observation ending at time listed.
 Day   Time    Ave.   Ave.  Ave.  Vector   Max.   Stn.    Total    Solar   Ave.  
  of    of     Air    Rel.  Wind   Wind    Wind   Baro.  Precip.   Rad.    Soil  
Year   Day     Temp.  Hum.  Speed  Dir.    Gust   Pres.                    Temp. 
2014   (PST)    F      %     mph   deg.    mph     mb.     in.     W/m2     F   
------------------------------------------------------------------------------
 355    0:00   27.1    94    1.1   318      4.5    825     0.00       0    36.4
 355    1:00   26.1    94    1.0   328      4.7    824     0.00       0    36.2
 355    2:00   26.2    94    0.9   296      4.0    824     0.00       0    35.9
 355    3:00   25.5    94    1.2   308      3.6    825     0.00       0    35.7
 355    4:00   25.8    94    1.3   308      5.3    824     0.00       0    35.5
 355    5:00   26.5    94    0.5   291      2.8    824     0.00       0    35.4
 355    6:00   25.3    94    0.8   323      4.7    824     0.00       0    35.2
 355    7:00   24.3    94    1.0   311      5.6    824     0.00       0    35.1
 355    8:00   24.4    94    1.4   319      4.0    823     0.00      26    34.9
 355    9:00   28.5    92    1.0   295      3.0    823     0.00      86    34.8
 355   10:00   34.1    89    0.9   282      3.1    824     0.00     175    34.9
 355   11:00   40.1    76    1.2   120      4.2    824     0.00     368    35.2
 355   12:00   44.6    67    2.1   116      4.7    824     0.00     463    36.5
 355   13:00   52.0    53    2.9    64      9.8    823     0.00     448    38.2
 355   14:00   56.2    44    4.8   336     18.5    820     0.00     258    39.8
 355   15:00   55.0    47   10.2   285     20.8    819     0.00     143    40.9
 355   16:00   53.2    50    6.6   303     19.5    820     0.00      66    41.2
 355   17:00   50.7    54    2.1   346      6.7    821     0.00       5    41.1
 355   18:00   47.1    63    5.7   281     11.2    821     0.00       0    40.7
 355   19:00   46.0    65    6.6   286     13.7    822     0.00       0    40.3
 355   20:00   46.4    65    7.3   288     13.1    822     0.00       0    40.0
 355   21:00   44.4    68    2.9   275      9.6    822     0.00       0    39.8
 355   22:00   44.0    68    1.6   157      4.5    823     0.00       0    39.5
 355   23:00   44.7    67    6.9   277     18.0    823     0.00       0    39.1

Return to Stone Cabin, Nevada graphs page.


Western Regional Climate Center,wrcc@dri.edu